sensor_id;sensor_type;location;lat;lon;timestamp;temperature;humidity
45549;DHT22;31270;48.328;10.096;2023-04-26T00:00:23;6.40;99.90
45549;DHT22;31270;48.328;10.096;2023-04-26T00:02:49;6.40;99.90
45549;DHT22;31270;48.328;10.096;2023-04-26T00:05:15;6.40;99.90
45549;DHT22;31270;48.328;10.096;2023-04-26T00:07:41;6.40;99.90
45549;DHT22;31270;48.328;10.096;2023-04-26T00:10:08;6.40;99.90
45549;DHT22;31270;48.328;10.096;2023-04-26T00:12:36;6.50;99.90
45549;DHT22;31270;48.328;10.096;2023-04-26T00:15:03;6.40;99.90
45549;DHT22;31270;48.328;10.096;2023-04-26T00:17:29;6.40;99.90
45549;DHT22;31270;48.328;10.096;2023-04-26T00:19:56;6.30;99.90
45549;DHT22;31270;48.328;10.096;2023-04-26T00:22:22;6.30;99.90
45549;DHT22;31270;48.328;10.096;2023-04-26T00:24:49;6.20;99.90
45549;DHT22;31270;48.328;10.096;2023-04-26T00:27:15;6.30;99.90
45549;DHT22;31270;48.328;10.096;2023-04-26T00:29:41;6.20;99.90
45549;DHT22;31270;48.328;10.096;2023-04-26T00:32:06;6.20;99.90
45549;DHT22;31270;48.328;10.096;2023-04-26T00:34:36;6.20;99.90
45549;DHT22;31270;48.328;10.096;2023-04-26T00:37:03;6.20;99.90
45549;DHT22;31270;48.328;10.096;2023-04-26T00:39:30;6.30;99.90
45549;DHT22;31270;48.328;10.096;2023-04-26T00:41:56;6.20;99.90
45549;DHT22;31270;48.328;10.096;2023-04-26T00:44:23;6.20;99.90
45549;DHT22;31270;48.328;10.096;2023-04-26T00:46:52;6.20;99.90
45549;DHT22;31270;48.328;10.096;2023-04-26T00:49:20;6.20;99.90
45549;DHT22;31270;48.328;10.096;2023-04-26T00:51:47;6.20;99.90
45549;DHT22;31270;48.328;10.096;2023-04-26T00:54:14;6.20;99.90
45549;DHT22;31270;48.328;10.096;2023-04-26T00:56:41;6.20;99.90
45549;DHT22;31270;48.328;10.096;2023-04-26T00:59:07;6.20;99.90
45549;DHT22;31270;48.328;10.096;2023-04-26T01:01:34;6.20;99.90
45549;DHT22;31270;48.328;10.096;2023-04-26T01:04:01;6.20;99.90
45549;DHT22;31270;48.328;10.096;2023-04-26T01:06:33;6.20;99.90
45549;DHT22;31270;48.328;10.096;2023-04-26T01:09:01;6.20;99.90
45549;DHT22;31270;48.328;10.096;2023-04-26T01:11:28;6.20;99.90
45549;DHT22;31270;48.328;10.096;2023-04-26T01:13:55;6.20;99.90
45549;DHT22;31270;48.328;10.096;2023-04-26T01:16:23;6.20;99.90
45549;DHT22;31270;48.328;10.096;2023-04-26T01:18:52;6.20;99.90
45549;DHT22;31270;48.328;10.096;2023-04-26T01:21:22;6.20;99.90
45549;DHT22;31270;48.328;10.096;2023-04-26T01:23:49;6.20;99.90
45549;DHT22;31270;48.328;10.096;2023-04-26T01:26:15;6.10;99.90
45549;DHT22;31270;48.328;10.096;2023-04-26T01:28:41;6.00;99.90
45549;DHT22;31270;48.328;10.096;2023-04-26T01:31:07;6.00;99.90
45549;DHT22;31270;48.328;10.096;2023-04-26T01:33:32;6.10;99.90
45549;DHT22;31270;48.328;10.096;2023-04-26T01:35:58;6.00;99.90
45549;DHT22;31270;48.328;10.096;2023-04-26T01:38:25;6.00;99.90
45549;DHT22;31270;48.328;10.096;2023-04-26T01:40:51;5.90;99.90
45549;DHT22;31270;48.328;10.096;2023-04-26T01:43:17;5.80;99.90
45549;DHT22;31270;48.328;10.096;2023-04-26T01:45:48;5.80;99.90
45549;DHT22;31270;48.328;10.096;2023-04-26T01:48:13;5.80;99.90
45549;DHT22;31270;48.328;10.096;2023-04-26T01:50:39;5.80;99.90
45549;DHT22;31270;48.328;10.096;2023-04-26T01:53:05;5.90;99.90
45549;DHT22;31270;48.328;10.096;2023-04-26T01:55:30;5.90;99.90
45549;DHT22;31270;48.328;10.096;2023-04-26T01:57:58;5.90;99.90
45549;DHT22;31270;48.328;10.096;2023-04-26T02:00:26;5.90;99.90
45549;DHT22;31270;48.328;10.096;2023-04-26T02:02:55;5.80;99.90
45549;DHT22;31270;48.328;10.096;2023-04-26T02:05:21;5.80;99.90
45549;DHT22;31270;48.328;10.096;2023-04-26T02:07:47;5.70;99.90
45549;DHT22;31270;48.328;10.096;2023-04-26T02:10:13;5.70;99.90
45549;DHT22;31270;48.328;10.096;2023-04-26T02:12:39;5.70;99.90
45549;DHT22;31270;48.328;10.096;2023-04-26T02:15:07;5.70;99.90
45549;DHT22;31270;48.328;10.096;2023-04-26T02:17:34;5.80;99.90
45549;DHT22;31270;48.328;10.096;2023-04-26T02:19:59;5.80;99.90
45549;DHT22;31270;48.328;10.096;2023-04-26T02:22:26;5.80;99.90
45549;DHT22;31270;48.328;10.096;2023-04-26T02:24:51;5.80;99.90
45549;DHT22;31270;48.328;10.096;2023-04-26T02:27:18;5.70;99.90
45549;DHT22;31270;48.328;10.096;2023-04-26T02:29:43;5.60;99.90
45549;DHT22;31270;48.328;10.096;2023-04-26T02:32:10;5.60;99.90
45549;DHT22;31270;48.328;10.096;2023-04-26T02:34:36;5.60;99.90
45549;DHT22;31270;48.328;10.096;2023-04-26T02:37:02;5.50;99.90
45549;DHT22;31270;48.328;10.096;2023-04-26T02:39:28;5.60;99.90
45549;DHT22;31270;48.328;10.096;2023-04-26T02:41:54;5.60;99.90
45549;DHT22;31270;48.328;10.096;2023-04-26T02:44:20;5.50;99.90
45549;DHT22;31270;48.328;10.096;2023-04-26T02:46:46;5.50;99.90
45549;DHT22;31270;48.328;10.096;2023-04-26T02:49:13;5.50;99.90
45549;DHT22;31270;48.328;10.096;2023-04-26T02:51:39;5.50;99.90
45549;DHT22;31270;48.328;10.096;2023-04-26T02:54:05;5.60;99.90
45549;DHT22;31270;48.328;10.096;2023-04-26T02:56:31;5.60;99.90
45549;DHT22;31270;48.328;10.096;2023-04-26T02:58:57;5.50;99.90
45549;DHT22;31270;48.328;10.096;2023-04-26T03:01:22;5.50;99.90
45549;DHT22;31270;48.328;10.096;2023-04-26T03:03:49;5.50;99.90
45549;DHT22;31270;48.328;10.096;2023-04-26T03:06:15;5.40;99.90
45549;DHT22;31270;48.328;10.096;2023-04-26T03:08:40;5.50;99.90
45549;DHT22;31270;48.328;10.096;2023-04-26T03:11:06;5.50;99.90
45549;DHT22;31270;48.328;10.096;2023-04-26T03:13:32;5.50;99.90
45549;DHT22;31270;48.328;10.096;2023-04-26T03:15:58;5.50;99.90
45549;DHT22;31270;48.328;10.096;2023-04-26T03:18:23;5.50;99.90
45549;DHT22;31270;48.328;10.096;2023-04-26T03:20:49;5.50;99.90
45549;DHT22;31270;48.328;10.096;2023-04-26T03:23:15;5.50;99.90
45549;DHT22;31270;48.328;10.096;2023-04-26T03:25:40;5.50;99.90
45549;DHT22;31270;48.328;10.096;2023-04-26T03:28:07;5.50;99.90
45549;DHT22;31270;48.328;10.096;2023-04-26T03:30:33;5.50;99.90
45549;DHT22;31270;48.328;10.096;2023-04-26T03:32:58;5.40;99.90
45549;DHT22;31270;48.328;10.096;2023-04-26T03:35:24;5.50;99.90
45549;DHT22;31270;48.328;10.096;2023-04-26T03:37:51;5.40;99.90
45549;DHT22;31270;48.328;10.096;2023-04-26T03:40:16;5.50;99.90
45549;DHT22;31270;48.328;10.096;2023-04-26T03:42:42;5.50;99.90
45549;DHT22;31270;48.328;10.096;2023-04-26T03:45:08;5.40;99.90
45549;DHT22;31270;48.328;10.096;2023-04-26T03:47:33;5.30;99.90
45549;DHT22;31270;48.328;10.096;2023-04-26T03:50:00;5.30;99.90
45549;DHT22;31270;48.328;10.096;2023-04-26T03:52:26;5.30;99.90
45549;DHT22;31270;48.328;10.096;2023-04-26T03:54:51;5.30;99.90
45549;DHT22;31270;48.328;10.096;2023-04-26T03:57:18;5.30;99.90
45549;DHT22;31270;48.328;10.096;2023-04-26T03:59:43;5.30;99.90
45549;DHT22;31270;48.328;10.096;2023-04-26T04:02:10;5.30;99.90
45549;DHT22;31270;48.328;10.096;2023-04-26T04:04:36;5.40;99.90
45549;DHT22;31270;48.328;10.096;2023-04-26T04:07:02;5.30;99.90
45549;DHT22;31270;48.328;10.096;2023-04-26T04:09:27;5.40;99.90
45549;DHT22;31270;48.328;10.096;2023-04-26T04:11:53;5.30;99.90
45549;DHT22;31270;48.328;10.096;2023-04-26T04:14:19;5.30;99.90
45549;DHT22;31270;48.328;10.096;2023-04-26T04:16:44;5.30;99.90
45549;DHT22;31270;48.328;10.096;2023-04-26T04:19:11;5.30;99.90
45549;DHT22;31270;48.328;10.096;2023-04-26T04:21:37;5.40;99.90
45549;DHT22;31270;48.328;10.096;2023-04-26T04:24:04;5.40;99.90
45549;DHT22;31270;48.328;10.096;2023-04-26T04:26:30;5.40;99.90
45549;DHT22;31270;48.328;10.096;2023-04-26T04:28:56;5.40;99.90
45549;DHT22;31270;48.328;10.096;2023-04-26T04:31:21;5.40;99.90
45549;DHT22;31270;48.328;10.096;2023-04-26T04:33:47;5.50;99.90
45549;DHT22;31270;48.328;10.096;2023-04-26T04:36:13;5.50;99.90
45549;DHT22;31270;48.328;10.096;2023-04-26T04:38:41;5.50;99.90
45549;DHT22;31270;48.328;10.096;2023-04-26T04:41:06;5.40;99.90
45549;DHT22;31270;48.328;10.096;2023-04-26T04:43:34;5.40;99.90
45549;DHT22;31270;48.328;10.096;2023-04-26T04:46:00;5.40;99.90
45549;DHT22;31270;48.328;10.096;2023-04-26T04:48:26;5.30;99.90
45549;DHT22;31270;48.328;10.096;2023-04-26T04:50:51;5.50;99.90
45549;DHT22;31270;48.328;10.096;2023-04-26T04:53:17;5.40;99.90
45549;DHT22;31270;48.328;10.096;2023-04-26T04:55:43;5.30;99.90
45549;DHT22;31270;48.328;10.096;2023-04-26T04:58:13;5.40;99.90
45549;DHT22;31270;48.328;10.096;2023-04-26T05:00:40;5.30;99.90
45549;DHT22;31270;48.328;10.096;2023-04-26T05:03:06;5.30;99.90
45549;DHT22;31270;48.328;10.096;2023-04-26T05:05:34;5.30;99.90
45549;DHT22;31270;48.328;10.096;2023-04-26T05:07:59;5.40;99.90
45549;DHT22;31270;48.328;10.096;2023-04-26T05:10:25;5.50;99.90
45549;DHT22;31270;48.328;10.096;2023-04-26T05:12:51;5.60;99.90
45549;DHT22;31270;48.328;10.096;2023-04-26T05:15:16;5.60;99.90
45549;DHT22;31270;48.328;10.096;2023-04-26T05:17:45;5.60;99.90
45549;DHT22;31270;48.328;10.096;2023-04-26T05:20:11;5.70;99.90
45549;DHT22;31270;48.328;10.096;2023-04-26T05:22:38;5.80;99.90
45549;DHT22;31270;48.328;10.096;2023-04-26T05:25:04;5.80;99.90
45549;DHT22;31270;48.328;10.096;2023-04-26T05:27:30;5.90;99.90
45549;DHT22;31270;48.328;10.096;2023-04-26T05:29:56;5.90;99.90
45549;DHT22;31270;48.328;10.096;2023-04-26T05:32:23;6.00;99.90
45549;DHT22;31270;48.328;10.096;2023-04-26T05:34:48;6.00;99.90
45549;DHT22;31270;48.328;10.096;2023-04-26T05:37:15;6.10;99.90
45549;DHT22;31270;48.328;10.096;2023-04-26T05:39:41;6.20;99.90
45549;DHT22;31270;48.328;10.096;2023-04-26T05:42:07;6.30;99.90
45549;DHT22;31270;48.328;10.096;2023-04-26T05:44:32;6.30;99.90
45549;DHT22;31270;48.328;10.096;2023-04-26T05:46:58;6.40;99.90
45549;DHT22;31270;48.328;10.096;2023-04-26T05:49:24;6.50;99.90
45549;DHT22;31270;48.328;10.096;2023-04-26T05:51:49;6.50;99.90
45549;DHT22;31270;48.328;10.096;2023-04-26T05:54:15;6.50;99.90
45549;DHT22;31270;48.328;10.096;2023-04-26T05:56:41;6.50;99.90
45549;DHT22;31270;48.328;10.096;2023-04-26T05:59:07;6.50;99.90
45549;DHT22;31270;48.328;10.096;2023-04-26T06:01:33;6.60;99.90
45549;DHT22;31270;48.328;10.096;2023-04-26T06:04:00;6.80;99.90
45549;DHT22;31270;48.328;10.096;2023-04-26T06:06:26;7.10;99.90
45549;DHT22;31270;48.328;10.096;2023-04-26T06:08:51;7.20;99.90
45549;DHT22;31270;48.328;10.096;2023-04-26T06:11:17;7.30;99.90
45549;DHT22;31270;48.328;10.096;2023-04-26T06:13:43;7.30;99.90
45549;DHT22;31270;48.328;10.096;2023-04-26T06:16:08;7.30;99.90
45549;DHT22;31270;48.328;10.096;2023-04-26T06:18:34;7.20;99.90
45549;DHT22;31270;48.328;10.096;2023-04-26T06:21:00;7.20;99.90
45549;DHT22;31270;48.328;10.096;2023-04-26T06:23:26;7.20;99.90
45549;DHT22;31270;48.328;10.096;2023-04-26T06:25:52;7.20;99.90
45549;DHT22;31270;48.328;10.096;2023-04-26T06:28:17;7.20;99.90
45549;DHT22;31270;48.328;10.096;2023-04-26T06:30:43;7.10;99.90
45549;DHT22;31270;48.328;10.096;2023-04-26T06:33:08;7.40;99.90
45549;DHT22;31270;48.328;10.096;2023-04-26T06:35:41;7.60;99.90
45549;DHT22;31270;48.328;10.096;2023-04-26T06:38:06;7.70;99.90
45549;DHT22;31270;48.328;10.096;2023-04-26T06:40:32;7.70;99.90
45549;DHT22;31270;48.328;10.096;2023-04-26T06:42:58;7.60;99.90
45549;DHT22;31270;48.328;10.096;2023-04-26T06:45:24;7.80;99.90
45549;DHT22;31270;48.328;10.096;2023-04-26T06:47:50;7.60;99.90
45549;DHT22;31270;48.328;10.096;2023-04-26T06:50:17;7.60;99.90
45549;DHT22;31270;48.328;10.096;2023-04-26T06:52:43;7.70;99.90
45549;DHT22;31270;48.328;10.096;2023-04-26T06:55:09;7.80;99.90
45549;DHT22;31270;48.328;10.096;2023-04-26T06:57:34;7.90;99.90
45549;DHT22;31270;48.328;10.096;2023-04-26T07:00:00;7.90;99.90
45549;DHT22;31270;48.328;10.096;2023-04-26T07:02:26;7.90;99.90
45549;DHT22;31270;48.328;10.096;2023-04-26T07:04:52;8.00;99.90
45549;DHT22;31270;48.328;10.096;2023-04-26T07:07:18;8.00;99.90
45549;DHT22;31270;48.328;10.096;2023-04-26T07:09:44;7.90;99.90
45549;DHT22;31270;48.328;10.096;2023-04-26T07:12:13;8.00;99.90
45549;DHT22;31270;48.328;10.096;2023-04-26T07:14:39;8.00;99.90
45549;DHT22;31270;48.328;10.096;2023-04-26T07:17:06;8.10;99.90
45549;DHT22;31270;48.328;10.096;2023-04-26T07:19:32;8.10;99.90
45549;DHT22;31270;48.328;10.096;2023-04-26T07:21:58;8.10;99.90
45549;DHT22;31270;48.328;10.096;2023-04-26T07:24:24;8.20;99.90
45549;DHT22;31270;48.328;10.096;2023-04-26T07:26:50;8.30;99.90
45549;DHT22;31270;48.328;10.096;2023-04-26T07:29:15;8.20;99.90
45549;DHT22;31270;48.328;10.096;2023-04-26T07:31:43;8.40;99.90
45549;DHT22;31270;48.328;10.096;2023-04-26T07:34:09;8.40;99.90
45549;DHT22;31270;48.328;10.096;2023-04-26T07:36:34;8.30;99.90
45549;DHT22;31270;48.328;10.096;2023-04-26T07:39:01;8.50;99.90
45549;DHT22;31270;48.328;10.096;2023-04-26T07:41:26;8.60;99.90
45549;DHT22;31270;48.328;10.096;2023-04-26T07:43:52;8.80;99.90
45549;DHT22;31270;48.328;10.096;2023-04-26T07:46:17;8.90;99.90
45549;DHT22;31270;48.328;10.096;2023-04-26T07:48:43;8.90;99.90
45549;DHT22;31270;48.328;10.096;2023-04-26T07:51:10;8.90;99.90
45549;DHT22;31270;48.328;10.096;2023-04-26T07:53:36;8.90;99.90
45549;DHT22;31270;48.328;10.096;2023-04-26T07:56:03;9.00;99.90
45549;DHT22;31270;48.328;10.096;2023-04-26T07:58:30;9.00;99.90
45549;DHT22;31270;48.328;10.096;2023-04-26T08:00:57;8.90;99.90
45549;DHT22;31270;48.328;10.096;2023-04-26T08:03:23;8.80;99.90
45549;DHT22;31270;48.328;10.096;2023-04-26T08:05:49;8.70;99.90
45549;DHT22;31270;48.328;10.096;2023-04-26T08:08:14;8.80;99.90
45549;DHT22;31270;48.328;10.096;2023-04-26T08:10:41;9.00;99.90
45549;DHT22;31270;48.328;10.096;2023-04-26T08:13:07;9.20;99.90
45549;DHT22;31270;48.328;10.096;2023-04-26T08:15:32;9.40;99.90
45549;DHT22;31270;48.328;10.096;2023-04-26T08:17:58;9.50;99.90
45549;DHT22;31270;48.328;10.096;2023-04-26T08:20:24;9.70;99.90
45549;DHT22;31270;48.328;10.096;2023-04-26T08:22:54;10.00;99.90
45549;DHT22;31270;48.328;10.096;2023-04-26T08:25:21;10.10;99.90
45549;DHT22;31270;48.328;10.096;2023-04-26T08:27:47;10.30;99.90
45549;DHT22;31270;48.328;10.096;2023-04-26T08:30:13;10.80;99.90
45549;DHT22;31270;48.328;10.096;2023-04-26T08:32:38;10.90;99.90
45549;DHT22;31270;48.328;10.096;2023-04-26T08:35:05;11.00;99.90
45549;DHT22;31270;48.328;10.096;2023-04-26T08:37:31;11.20;99.90
45549;DHT22;31270;48.328;10.096;2023-04-26T08:39:57;11.50;99.90
45549;DHT22;31270;48.328;10.096;2023-04-26T08:42:27;11.70;99.90
45549;DHT22;31270;48.328;10.096;2023-04-26T08:44:53;12.20;99.90
45549;DHT22;31270;48.328;10.096;2023-04-26T08:50:12;12.50;99.90
45549;DHT22;31270;48.328;10.096;2023-04-26T08:52:40;12.40;99.90
45549;DHT22;31270;48.328;10.096;2023-04-26T08:55:08;12.20;99.90
45549;DHT22;31270;48.328;10.096;2023-04-26T08:57:35;12.10;99.90
45549;DHT22;31270;48.328;10.096;2023-04-26T09:00:03;12.10;99.90
45549;DHT22;31270;48.328;10.096;2023-04-26T09:02:31;12.10;99.90
45549;DHT22;31270;48.328;10.096;2023-04-26T09:04:58;12.30;99.90
45549;DHT22;31270;48.328;10.096;2023-04-26T09:07:34;12.10;99.90
45549;DHT22;31270;48.328;10.096;2023-04-26T09:10:03;11.80;99.90
45549;DHT22;31270;48.328;10.096;2023-04-26T09:12:29;11.60;99.90
45549;DHT22;31270;48.328;10.096;2023-04-26T09:14:54;11.40;99.90
45549;DHT22;31270;48.328;10.096;2023-04-26T09:17:29;11.30;99.90
45549;DHT22;31270;48.328;10.096;2023-04-26T09:19:56;11.20;99.90
45549;DHT22;31270;48.328;10.096;2023-04-26T09:22:32;11.20;99.90
45549;DHT22;31270;48.328;10.096;2023-04-26T09:24:59;11.30;99.90
45549;DHT22;31270;48.328;10.096;2023-04-26T09:27:37;11.40;99.90
45549;DHT22;31270;48.328;10.096;2023-04-26T09:30:04;11.70;99.90
45549;DHT22;31270;48.328;10.096;2023-04-26T09:32:51;12.00;99.90
45549;DHT22;31270;48.328;10.096;2023-04-26T09:35:39;12.10;99.90
45549;DHT22;31270;48.328;10.096;2023-04-26T09:38:10;12.50;99.90
45549;DHT22;31270;48.328;10.096;2023-04-26T09:43:15;12.50;99.90
45549;DHT22;31270;48.328;10.096;2023-04-26T09:46:19;12.80;99.90
45549;DHT22;31270;48.328;10.096;2023-04-26T09:48:35;12.90;99.90
45549;DHT22;31270;48.328;10.096;2023-04-26T09:51:09;13.60;99.90
45549;DHT22;31270;48.328;10.096;2023-04-26T09:53:45;14.00;99.90
45549;DHT22;31270;48.328;10.096;2023-04-26T09:56:12;14.30;99.90
45549;DHT22;31270;48.328;10.096;2023-04-26T10:01:09;15.00;99.90
45549;DHT22;31270;48.328;10.096;2023-04-26T10:03:36;14.80;99.90
45549;DHT22;31270;48.328;10.096;2023-04-26T10:06:02;14.20;99.90
45549;DHT22;31270;48.328;10.096;2023-04-26T10:08:30;13.90;99.90
45549;DHT22;31270;48.328;10.096;2023-04-26T10:10:56;14.00;99.90
45549;DHT22;31270;48.328;10.096;2023-04-26T10:13:22;13.70;99.90
45549;DHT22;31270;48.328;10.096;2023-04-26T10:15:47;13.60;99.90
45549;DHT22;31270;48.328;10.096;2023-04-26T10:18:13;13.50;99.90
45549;DHT22;31270;48.328;10.096;2023-04-26T10:20:40;13.30;99.90
45549;DHT22;31270;48.328;10.096;2023-04-26T10:23:19;12.90;99.90
45549;DHT22;31270;48.328;10.096;2023-04-26T10:25:46;12.90;99.90
45549;DHT22;31270;48.328;10.096;2023-04-26T10:28:12;12.60;99.90
45549;DHT22;31270;48.328;10.096;2023-04-26T10:30:57;12.50;99.90
45549;DHT22;31270;48.328;10.096;2023-04-26T10:33:24;12.40;99.90
45549;DHT22;31270;48.328;10.096;2023-04-26T10:36:13;12.70;99.90
45549;DHT22;31270;48.328;10.096;2023-04-26T10:38:41;12.80;99.90
45549;DHT22;31270;48.328;10.096;2023-04-26T10:41:32;13.10;99.90
45549;DHT22;31270;48.328;10.096;2023-04-26T10:44:00;13.30;99.90
45549;DHT22;31270;48.328;10.096;2023-04-26T10:46:49;13.60;99.90
45549;DHT22;31270;48.328;10.096;2023-04-26T10:49:18;13.80;99.90
45549;DHT22;31270;48.328;10.096;2023-04-26T10:54:50;13.80;99.90
45549;DHT22;31270;48.328;10.096;2023-04-26T10:57:17;13.50;99.90
45549;DHT22;31270;48.328;10.096;2023-04-26T11:02:52;12.70;99.90
45549;DHT22;31270;48.328;10.096;2023-04-26T11:05:37;12.70;99.90
45549;DHT22;31270;48.328;10.096;2023-04-26T11:10:36;13.50;99.90
45549;DHT22;31270;48.328;10.096;2023-04-26T11:13:03;13.70;99.90
45549;DHT22;31270;48.328;10.096;2023-04-26T11:15:31;13.70;99.90
45549;DHT22;31270;48.328;10.096;2023-04-26T11:17:58;14.20;99.90
45549;DHT22;31270;48.328;10.096;2023-04-26T11:20:28;14.40;99.90
45549;DHT22;31270;48.328;10.096;2023-04-26T11:22:55;14.50;99.90
45549;DHT22;31270;48.328;10.096;2023-04-26T11:25:27;13.80;99.90
45549;DHT22;31270;48.328;10.096;2023-04-26T11:27:59;13.60;99.90
45549;DHT22;31270;48.328;10.096;2023-04-26T11:30:33;13.50;99.90
45549;DHT22;31270;48.328;10.096;2023-04-26T11:32:59;13.50;99.90
45549;DHT22;31270;48.328;10.096;2023-04-26T11:35:25;13.50;99.90
45549;DHT22;31270;48.328;10.096;2023-04-26T11:37:52;13.50;99.90
45549;DHT22;31270;48.328;10.096;2023-04-26T11:40:18;13.60;99.90
45549;DHT22;31270;48.328;10.096;2023-04-26T11:42:44;13.60;99.90
45549;DHT22;31270;48.328;10.096;2023-04-26T11:45:10;13.40;99.90
45549;DHT22;31270;48.328;10.096;2023-04-26T11:47:36;13.10;99.90
45549;DHT22;31270;48.328;10.096;2023-04-26T11:50:02;13.30;99.90
45549;DHT22;31270;48.328;10.096;2023-04-26T11:52:28;13.50;99.90
45549;DHT22;31270;48.328;10.096;2023-04-26T11:55:04;13.60;99.90
45549;DHT22;31270;48.328;10.096;2023-04-26T11:57:32;13.70;99.90
45549;DHT22;31270;48.328;10.096;2023-04-26T12:00:18;14.30;99.90
45549;DHT22;31270;48.328;10.096;2023-04-26T12:02:48;15.00;99.90
45549;DHT22;31270;48.328;10.096;2023-04-26T12:05:25;15.00;99.90
45549;DHT22;31270;48.328;10.096;2023-04-26T12:07:55;15.10;99.90
45549;DHT22;31270;48.328;10.096;2023-04-26T12:12:52;14.40;99.90
45549;DHT22;31270;48.328;10.096;2023-04-26T12:15:23;14.30;99.90
45549;DHT22;31270;48.328;10.096;2023-04-26T12:17:53;14.10;99.90
45549;DHT22;31270;48.328;10.096;2023-04-26T12:20:26;14.40;99.90
45549;DHT22;31270;48.328;10.096;2023-04-26T12:23:05;14.60;99.90
45549;DHT22;31270;48.328;10.096;2023-04-26T12:25:33;14.50;99.90
45549;DHT22;31270;48.328;10.096;2023-04-26T12:27:59;14.50;99.90
45549;DHT22;31270;48.328;10.096;2023-04-26T12:30:27;14.30;99.90
45549;DHT22;31270;48.328;10.096;2023-04-26T12:32:53;14.40;99.90
45549;DHT22;31270;48.328;10.096;2023-04-26T12:35:21;14.60;99.90
45549;DHT22;31270;48.328;10.096;2023-04-26T12:37:47;14.60;99.90
45549;DHT22;31270;48.328;10.096;2023-04-26T12:40:14;14.50;99.90
45549;DHT22;31270;48.328;10.096;2023-04-26T12:42:40;14.30;99.90
45549;DHT22;31270;48.328;10.096;2023-04-26T12:45:06;14.30;99.90
45549;DHT22;31270;48.328;10.096;2023-04-26T12:47:32;14.20;99.90
45549;DHT22;31270;48.328;10.096;2023-04-26T12:49:59;14.20;99.90
45549;DHT22;31270;48.328;10.096;2023-04-26T12:52:26;14.30;99.90
45549;DHT22;31270;48.328;10.096;2023-04-26T12:54:52;14.00;99.90
45549;DHT22;31270;48.328;10.096;2023-04-26T12:57:19;14.20;99.90
45549;DHT22;31270;48.328;10.096;2023-04-26T12:59:45;14.10;99.90
45549;DHT22;31270;48.328;10.096;2023-04-26T13:02:11;14.20;99.90
45549;DHT22;31270;48.328;10.096;2023-04-26T13:04:36;14.20;99.90
45549;DHT22;31270;48.328;10.096;2023-04-26T13:07:03;14.40;99.90
45549;DHT22;31270;48.328;10.096;2023-04-26T13:09:28;14.60;99.90
45549;DHT22;31270;48.328;10.096;2023-04-26T13:11:54;14.80;99.90
45549;DHT22;31270;48.328;10.096;2023-04-26T13:14:20;14.80;99.90
45549;DHT22;31270;48.328;10.096;2023-04-26T13:16:48;15.10;99.90
45549;DHT22;31270;48.328;10.096;2023-04-26T13:19:13;15.20;99.90
45549;DHT22;31270;48.328;10.096;2023-04-26T13:21:39;15.10;99.90
45549;DHT22;31270;48.328;10.096;2023-04-26T13:24:07;15.00;99.90
45549;DHT22;31270;48.328;10.096;2023-04-26T13:26:33;15.00;99.90
45549;DHT22;31270;48.328;10.096;2023-04-26T13:28:59;14.70;99.90
45549;DHT22;31270;48.328;10.096;2023-04-26T13:31:25;15.00;99.90
45549;DHT22;31270;48.328;10.096;2023-04-26T13:33:51;15.10;99.90
45549;DHT22;31270;48.328;10.096;2023-04-26T13:36:16;15.20;99.90
45549;DHT22;31270;48.328;10.096;2023-04-26T13:38:43;15.00;99.90
45549;DHT22;31270;48.328;10.096;2023-04-26T13:41:09;15.00;99.90
45549;DHT22;31270;48.328;10.096;2023-04-26T13:43:35;15.00;99.90
45549;DHT22;31270;48.328;10.096;2023-04-26T13:46:01;15.10;99.90
45549;DHT22;31270;48.328;10.096;2023-04-26T13:48:27;15.70;99.90
45549;DHT22;31270;48.328;10.096;2023-04-26T13:50:53;15.90;99.90
45549;DHT22;31270;48.328;10.096;2023-04-26T13:53:20;15.80;99.90
45549;DHT22;31270;48.328;10.096;2023-04-26T13:55:47;16.00;99.90
45549;DHT22;31270;48.328;10.096;2023-04-26T13:58:12;16.10;99.90
45549;DHT22;31270;48.328;10.096;2023-04-26T14:00:38;16.30;99.90
45549;DHT22;31270;48.328;10.096;2023-04-26T14:03:04;16.10;99.90
45549;DHT22;31270;48.328;10.096;2023-04-26T14:05:30;16.30;99.90
45549;DHT22;31270;48.328;10.096;2023-04-26T14:07:56;16.70;99.90
45549;DHT22;31270;48.328;10.096;2023-04-26T14:10:23;16.80;99.90
45549;DHT22;31270;48.328;10.096;2023-04-26T14:12:48;17.00;99.90
45549;DHT22;31270;48.328;10.096;2023-04-26T14:15:15;16.90;99.90
45549;DHT22;31270;48.328;10.096;2023-04-26T14:17:41;16.80;99.90
45549;DHT22;31270;48.328;10.096;2023-04-26T14:20:07;16.60;99.90
45549;DHT22;31270;48.328;10.096;2023-04-26T14:22:34;16.20;99.90
45549;DHT22;31270;48.328;10.096;2023-04-26T14:25:00;16.30;99.90
45549;DHT22;31270;48.328;10.096;2023-04-26T14:27:26;16.60;99.90
45549;DHT22;31270;48.328;10.096;2023-04-26T14:29:52;16.90;99.90
45549;DHT22;31270;48.328;10.096;2023-04-26T14:32:18;17.00;99.90
45549;DHT22;31270;48.328;10.096;2023-04-26T14:34:44;17.10;99.90
45549;DHT22;31270;48.328;10.096;2023-04-26T14:37:10;17.00;99.40
45549;DHT22;31270;48.328;10.096;2023-04-26T14:39:36;17.00;99.90
45549;DHT22;31270;48.328;10.096;2023-04-26T14:42:02;17.10;99.90
45549;DHT22;31270;48.328;10.096;2023-04-26T14:44:28;16.90;99.90
45549;DHT22;31270;48.328;10.096;2023-04-26T14:46:54;16.90;99.80
45549;DHT22;31270;48.328;10.096;2023-04-26T14:49:20;16.50;98.60
45549;DHT22;31270;48.328;10.096;2023-04-26T14:51:47;16.20;98.50
45549;DHT22;31270;48.328;10.096;2023-04-26T14:54:13;16.00;99.90
45549;DHT22;31270;48.328;10.096;2023-04-26T14:56:39;16.00;99.90
45549;DHT22;31270;48.328;10.096;2023-04-26T14:59:05;16.10;99.90
45549;DHT22;31270;48.328;10.096;2023-04-26T15:01:31;16.30;99.90
45549;DHT22;31270;48.328;10.096;2023-04-26T15:03:57;16.30;99.90
45549;DHT22;31270;48.328;10.096;2023-04-26T15:06:24;16.20;99.90
45549;DHT22;31270;48.328;10.096;2023-04-26T15:08:50;16.20;99.90
45549;DHT22;31270;48.328;10.096;2023-04-26T15:11:16;16.40;99.90
45549;DHT22;31270;48.328;10.096;2023-04-26T15:13:42;16.30;99.90
45549;DHT22;31270;48.328;10.096;2023-04-26T15:16:07;16.20;99.90
45549;DHT22;31270;48.328;10.096;2023-04-26T15:18:33;16.20;99.90
45549;DHT22;31270;48.328;10.096;2023-04-26T15:20:58;16.10;99.90
45549;DHT22;31270;48.328;10.096;2023-04-26T15:23:24;15.80;99.90
45549;DHT22;31270;48.328;10.096;2023-04-26T15:25:51;15.80;99.90
45549;DHT22;31270;48.328;10.096;2023-04-26T15:28:16;16.00;99.90
45549;DHT22;31270;48.328;10.096;2023-04-26T15:30:42;15.80;99.90
45549;DHT22;31270;48.328;10.096;2023-04-26T15:33:08;15.70;99.90
45549;DHT22;31270;48.328;10.096;2023-04-26T15:35:34;15.70;99.90
45549;DHT22;31270;48.328;10.096;2023-04-26T15:38:00;15.60;99.90
45549;DHT22;31270;48.328;10.096;2023-04-26T15:40:26;15.70;99.90
45549;DHT22;31270;48.328;10.096;2023-04-26T15:42:52;15.70;99.90